createdAt,value
2018-07-22T00:00:09.758Z,21.18
2018-07-22T00:02:39.279Z,21.14
2018-07-22T00:05:08.889Z,21.12
2018-07-22T00:07:38.413Z,21.11
2018-07-22T00:10:17.845Z,21.12
2018-07-22T00:12:47.015Z,21.10
2018-07-22T00:15:16.171Z,21.09
2018-07-22T00:17:45.324Z,21.06
2018-07-22T00:20:15.228Z,21.03
2018-07-22T00:22:44.530Z,20.98
2018-07-22T00:25:13.660Z,20.94
2018-07-22T00:27:42.848Z,20.89
2018-07-22T00:30:11.998Z,20.84
2018-07-22T00:32:42.250Z,20.80
2018-07-22T00:35:12.466Z,20.74
2018-07-22T00:37:42.213Z,20.70
2018-07-22T00:40:12.306Z,20.68
2018-07-22T00:42:41.539Z,20.63
2018-07-22T00:45:13.258Z,20.59
2018-07-22T00:47:43.190Z,20.55
2018-07-22T00:50:12.348Z,20.51
2018-07-22T00:52:41.551Z,20.49
2018-07-22T00:55:10.729Z,20.47
2018-07-22T00:57:39.862Z,20.44
2018-07-22T01:00:09.399Z,20.43
2018-07-22T01:02:38.602Z,20.41
2018-07-22T01:05:08.079Z,20.39
2018-07-22T01:07:37.378Z,20.36
2018-07-22T01:10:06.981Z,20.34
2018-07-22T01:12:36.195Z,20.33
2018-07-22T01:15:06.071Z,20.32
2018-07-22T01:17:35.235Z,20.33
2018-07-22T01:20:04.915Z,20.32
2018-07-22T01:22:34.111Z,20.32
2018-07-22T01:25:03.312Z,20.32
2018-07-22T01:27:32.512Z,20.32
2018-07-22T01:30:01.689Z,20.32
2018-07-22T01:32:30.908Z,20.30
2018-07-22T01:35:00.067Z,20.27
2018-07-22T01:37:29.262Z,20.26
2018-07-22T01:39:58.387Z,20.23
2018-07-22T01:42:27.688Z,20.16
2018-07-22T01:44:56.817Z,20.12
2018-07-22T01:47:25.982Z,20.06
2018-07-22T01:49:55.972Z,19.99
2018-07-22T01:52:25.113Z,19.91
2018-07-22T01:54:54.837Z,19.79
2018-07-22T01:57:24.022Z,19.70
2018-07-22T01:59:53.222Z,19.61
2018-07-22T02:02:22.346Z,19.53
2018-07-22T02:04:51.529Z,19.45
2018-07-22T02:07:20.708Z,19.37
2018-07-22T02:09:49.882Z,19.31
2018-07-22T02:12:19.023Z,19.26
2018-07-22T02:14:48.138Z,19.24
2018-07-22T02:17:17.242Z,19.20
2018-07-22T02:19:46.416Z,19.17
2018-07-22T02:22:15.674Z,19.16
2018-07-22T02:24:45.582Z,19.17
2018-07-22T02:27:15.610Z,19.16
2018-07-22T02:29:44.750Z,19.13
2018-07-22T02:32:13.919Z,19.13
2018-07-22T02:34:43.020Z,19.13
2018-07-22T02:37:12.199Z,19.14
2018-07-22T02:39:41.298Z,19.18
2018-07-22T02:42:10.962Z,19.24
2018-07-22T02:44:40.127Z,19.28
2018-07-22T02:47:09.255Z,19.30
2018-07-22T02:49:38.356Z,19.30
2018-07-22T02:52:07.803Z,19.27
2018-07-22T02:54:36.925Z,19.24
2018-07-22T02:57:07.014Z,19.17
2018-07-22T02:59:36.108Z,19.12
2018-07-22T03:02:05.240Z,19.13
2018-07-22T03:04:34.403Z,19.12
2018-07-22T03:07:03.525Z,19.11
2018-07-22T03:09:32.688Z,19.12
2018-07-22T03:12:01.835Z,19.12
2018-07-22T03:14:30.986Z,19.12
2018-07-22T03:17:00.200Z,19.12
2018-07-22T03:19:29.373Z,19.12
2018-07-22T03:21:58.490Z,19.12
2018-07-22T03:24:27.678Z,19.15
2018-07-22T03:26:56.953Z,19.21
2018-07-22T03:29:26.150Z,19.24
2018-07-22T03:31:55.301Z,19.29
2018-07-22T03:34:24.493Z,19.33
2018-07-22T03:36:53.779Z,19.38
2018-07-22T03:39:23.054Z,19.42
2018-07-22T03:41:52.289Z,19.49
2018-07-22T03:44:21.802Z,19.52
2018-07-22T03:46:50.977Z,19.57
2018-07-22T03:49:20.154Z,19.61
2018-07-22T03:51:49.258Z,19.68
2018-07-22T03:54:18.437Z,19.73
2018-07-22T03:56:47.671Z,19.79
2018-07-22T03:59:16.911Z,19.86
2018-07-22T04:01:46.049Z,19.93
2018-07-22T04:04:15.213Z,20.02
2018-07-22T04:06:44.383Z,20.11
2018-07-22T04:09:13.570Z,20.20
2018-07-22T04:11:42.742Z,20.32
2018-07-22T04:14:11.980Z,20.40
2018-07-22T04:16:41.181Z,20.53
2018-07-22T04:19:10.322Z,20.64
2018-07-22T04:21:39.471Z,20.74
2018-07-22T04:24:08.632Z,20.83
2018-07-22T04:26:37.869Z,20.92
2018-07-22T04:29:07.150Z,20.99
2018-07-22T04:31:36.353Z,21.09
2018-07-22T04:34:05.587Z,21.16
2018-07-22T04:36:34.733Z,21.25
2018-07-22T04:39:06.491Z,21.34
2018-07-22T04:41:35.656Z,21.43
2018-07-22T04:44:04.798Z,21.51
2018-07-22T04:46:33.941Z,21.57
2018-07-22T04:49:03.170Z,21.63
2018-07-22T04:51:33.200Z,21.69
2018-07-22T04:54:02.452Z,21.76
2018-07-22T04:56:31.618Z,21.82
2018-07-22T04:59:00.791Z,21.91
2018-07-22T05:01:29.927Z,22.02
2018-07-22T05:03:59.070Z,22.11
2018-07-22T05:06:29.222Z,22.21
2018-07-22T05:08:58.413Z,22.30
2018-07-22T05:11:28.343Z,22.38
2018-07-22T05:13:57.526Z,22.44
2018-07-22T05:16:27.339Z,22.49
2018-07-22T05:18:56.517Z,22.55
2018-07-22T05:21:25.770Z,22.58
2018-07-22T05:23:54.914Z,22.61
2018-07-22T05:26:24.059Z,22.66
2018-07-22T05:28:53.311Z,22.72
2018-07-22T05:31:22.510Z,22.78
2018-07-22T05:33:51.657Z,22.88
2018-07-22T05:36:20.815Z,22.95
2018-07-22T05:38:50.034Z,23.00
2018-07-22T05:41:19.192Z,23.03
2018-07-22T05:43:48.334Z,23.07
2018-07-22T05:46:17.853Z,23.13
2018-07-22T05:48:47.066Z,23.21
2018-07-22T05:51:16.217Z,23.31
2018-07-22T05:53:45.365Z,23.41
2018-07-22T05:56:14.514Z,23.51
2018-07-22T05:58:43.714Z,23.62
2018-07-22T06:01:12.874Z,23.72
2018-07-22T06:03:42.724Z,23.84
2018-07-22T06:06:11.875Z,24.04
2018-07-22T06:08:41.005Z,24.22
2018-07-22T06:11:10.184Z,24.45
2018-07-22T06:13:39.325Z,24.65
2018-07-22T06:16:08.565Z,24.86
2018-07-22T06:18:37.705Z,25.09
2018-07-22T06:21:07.132Z,25.29
2018-07-22T06:23:36.291Z,25.47
2018-07-22T06:26:06.008Z,25.66
2018-07-22T06:28:35.177Z,25.78
2018-07-22T06:31:04.345Z,25.91
2018-07-22T06:33:33.494Z,26.05
2018-07-22T06:36:02.684Z,26.18
2018-07-22T06:38:32.869Z,26.29
2018-07-22T06:41:02.054Z,26.37
2018-07-22T06:43:31.209Z,26.48
2018-07-22T06:46:00.341Z,26.57
2018-07-22T06:48:29.555Z,26.64
2018-07-22T06:50:58.701Z,26.73
2018-07-22T06:53:27.897Z,26.85
2018-07-22T06:55:57.022Z,27.04
2018-07-22T06:58:26.169Z,27.24
2018-07-22T07:00:55.317Z,27.57
2018-07-22T07:03:24.506Z,27.96
2018-07-22T07:05:53.658Z,28.34
2018-07-22T07:08:22.770Z,28.77
2018-07-22T07:10:51.951Z,29.14
2018-07-22T07:13:21.047Z,29.43
2018-07-22T07:15:50.150Z,29.74
2018-07-22T07:18:19.268Z,30.11
2018-07-22T07:20:48.462Z,30.44
2018-07-22T07:23:17.570Z,30.68
2018-07-22T07:25:46.873Z,30.85
2018-07-22T07:28:16.031Z,31.04
2018-07-22T07:30:45.190Z,31.20
2018-07-22T07:33:14.345Z,31.44
2018-07-22T07:35:43.527Z,31.80
2018-07-22T07:38:12.704Z,32.37
2018-07-22T07:40:41.840Z,33.02
2018-07-22T07:43:11.061Z,33.72
2018-07-22T07:45:40.775Z,34.44
2018-07-22T07:48:09.978Z,34.86
2018-07-22T07:50:39.479Z,35.15
2018-07-22T07:53:08.826Z,35.27
2018-07-22T07:55:37.833Z,35.38
2018-07-22T07:58:06.999Z,35.46
2018-07-22T08:00:36.475Z,35.62
2018-07-22T08:03:05.693Z,35.48
2018-07-22T08:05:34.834Z,35.34
2018-07-22T08:08:04.023Z,35.34
2018-07-22T08:10:33.193Z,35.47
2018-07-22T08:13:02.432Z,35.65
2018-07-22T08:15:31.597Z,35.78
2018-07-22T08:18:00.738Z,35.91
2018-07-22T08:20:29.944Z,35.93
2018-07-22T08:22:59.129Z,35.95
2018-07-22T08:25:28.293Z,36.08
2018-07-22T08:27:57.498Z,36.38
2018-07-22T08:30:26.800Z,36.77
2018-07-22T08:32:56.024Z,37.15
2018-07-22T08:35:25.190Z,37.73
2018-07-22T08:37:54.390Z,37.99
2018-07-22T08:40:23.614Z,38.45
2018-07-22T08:42:52.819Z,38.76
2018-07-22T08:45:23.114Z,38.98
2018-07-22T08:47:52.417Z,39.13
2018-07-22T08:50:21.558Z,39.43
2018-07-22T08:52:50.825Z,39.40
2018-07-22T08:55:20.063Z,39.47
2018-07-22T08:57:49.311Z,39.58
2018-07-22T09:00:18.544Z,39.83
2018-07-22T09:02:47.792Z,40.09
2018-07-22T09:05:17.009Z,40.36
2018-07-22T09:07:46.226Z,40.60
2018-07-22T09:10:15.536Z,40.29
2018-07-22T09:12:44.770Z,39.72
2018-07-22T09:15:15.366Z,39.29
2018-07-22T09:17:44.603Z,38.75
2018-07-22T09:20:13.742Z,38.69
2018-07-22T09:22:43.032Z,38.78
2018-07-22T09:25:12.233Z,38.93
2018-07-22T09:27:41.449Z,39.04
2018-07-22T09:30:10.605Z,39.04
2018-07-22T09:32:40.029Z,39.06
2018-07-22T09:35:09.190Z,39.20
2018-07-22T09:37:38.348Z,39.52
2018-07-22T09:40:07.559Z,39.68
2018-07-22T09:42:36.703Z,39.78
2018-07-22T09:45:06.018Z,39.48
2018-07-22T09:47:35.218Z,39.26
2018-07-22T09:50:04.382Z,38.98
2018-07-22T09:52:33.534Z,38.51
2018-07-22T09:55:02.700Z,37.94
2018-07-22T09:57:34.635Z,37.67
2018-07-22T10:00:03.827Z,37.37
2018-07-22T10:02:33.006Z,37.22
2018-07-22T10:05:02.146Z,37.31
2018-07-22T10:07:31.288Z,37.36
2018-07-22T10:10:00.490Z,37.49
2018-07-22T10:12:29.660Z,37.49
2018-07-22T10:14:58.819Z,37.31
2018-07-22T10:17:28.022Z,37.37
2018-07-22T10:19:57.146Z,37.70
2018-07-22T10:22:26.287Z,37.78
2018-07-22T10:24:55.398Z,38.13
2018-07-22T10:27:24.646Z,38.27
2018-07-22T10:29:53.826Z,38.50
2018-07-22T10:32:23.131Z,38.42
2018-07-22T10:34:52.397Z,37.93
2018-07-22T10:37:21.662Z,37.47
2018-07-22T10:39:50.841Z,37.37
2018-07-22T10:42:19.986Z,37.15
2018-07-22T10:44:49.185Z,36.92
2018-07-22T10:47:18.385Z,36.53
2018-07-22T10:49:47.583Z,36.15
2018-07-22T10:52:16.941Z,35.57
2018-07-22T10:54:46.081Z,35.42
2018-07-22T10:57:16.920Z,35.32
2018-07-22T10:59:46.760Z,35.35
2018-07-22T11:02:15.757Z,35.17
2018-07-22T11:04:45.030Z,35.04
2018-07-22T11:07:14.344Z,35.30
2018-07-22T11:09:44.435Z,35.66
2018-07-22T11:12:13.673Z,35.63
2018-07-22T11:14:42.933Z,35.52
2018-07-22T11:17:12.347Z,35.59
2018-07-22T11:19:41.507Z,35.64
2018-07-22T11:22:10.722Z,35.62
2018-07-22T11:24:39.930Z,35.44
2018-07-22T11:27:20.771Z,35.22
2018-07-22T11:29:49.940Z,34.89
2018-07-22T11:32:19.203Z,34.61
2018-07-22T11:34:48.417Z,34.61
2018-07-22T11:37:18.387Z,34.73
2018-07-22T11:39:47.547Z,34.77
2018-07-22T11:42:16.796Z,34.65
2018-07-22T11:44:45.985Z,34.63
2018-07-22T11:47:15.118Z,34.69
2018-07-22T11:49:44.268Z,34.59
2018-07-22T11:52:13.464Z,34.51
2018-07-22T11:54:42.591Z,34.37
2018-07-22T11:57:11.768Z,34.35
2018-07-22T11:59:40.889Z,34.32
2018-07-22T12:02:10.062Z,34.29
2018-07-22T12:04:39.230Z,34.27
2018-07-22T12:07:08.362Z,34.09
2018-07-22T12:09:37.560Z,33.96
2018-07-22T12:12:07.496Z,33.85
2018-07-22T12:14:36.674Z,33.74
2018-07-22T12:17:06.880Z,33.59
2018-07-22T12:19:36.062Z,33.50
2018-07-22T12:22:05.234Z,33.44
2018-07-22T12:24:34.391Z,33.49
2018-07-22T12:27:03.545Z,33.48
2018-07-22T12:29:32.744Z,33.47
2018-07-22T12:32:01.917Z,33.45
2018-07-22T12:34:31.210Z,33.40
2018-07-22T12:37:00.569Z,33.36
2018-07-22T12:39:29.753Z,33.37
2018-07-22T12:41:58.863Z,33.41
2018-07-22T12:44:28.085Z,33.23
2018-07-22T12:46:57.313Z,32.98
2018-07-22T12:49:26.536Z,32.91
2018-07-22T12:51:55.652Z,33.08
2018-07-22T12:54:25.715Z,33.21
2018-07-22T12:56:54.882Z,33.23
2018-07-22T12:59:24.022Z,33.25
2018-07-22T13:01:53.190Z,33.20
2018-07-22T13:04:22.387Z,33.22
2018-07-22T13:06:51.782Z,33.23
2018-07-22T13:09:20.946Z,33.19
2018-07-22T13:11:50.128Z,33.13
2018-07-22T13:14:19.476Z,33.17
2018-07-22T13:16:49.341Z,33.21
2018-07-22T13:19:18.539Z,33.18
2018-07-22T13:21:48.698Z,32.99
2018-07-22T13:24:17.877Z,32.89
2018-07-22T13:26:49.214Z,32.73
2018-07-22T13:29:18.521Z,32.66
2018-07-22T13:31:48.319Z,32.63
2018-07-22T13:34:17.471Z,32.62
2018-07-22T13:36:46.652Z,32.63
2018-07-22T13:39:15.854Z,32.57
2018-07-22T13:41:44.984Z,32.53
2018-07-22T13:44:14.133Z,32.61
2018-07-22T13:46:43.345Z,32.66
2018-07-22T13:49:12.847Z,32.65
2018-07-22T13:51:41.966Z,32.62
2018-07-22T13:54:11.139Z,32.61
2018-07-22T13:56:40.324Z,32.57
2018-07-22T13:59:09.538Z,32.37
2018-07-22T14:01:38.715Z,31.97
2018-07-22T14:04:08.064Z,31.73
2018-07-22T14:06:37.332Z,31.60
2018-07-22T14:09:09.407Z,31.51
2018-07-22T14:11:38.578Z,31.37
2018-07-22T14:14:08.293Z,31.18
2018-07-22T14:16:37.711Z,31.01
2018-07-22T14:19:07.073Z,30.94
2018-07-22T14:21:36.279Z,30.96
2018-07-22T14:24:05.383Z,31.02
2018-07-22T14:26:35.059Z,30.99
2018-07-22T14:29:04.638Z,30.89
2018-07-22T14:31:33.810Z,30.70
2018-07-22T14:34:02.950Z,30.56
2018-07-22T14:36:32.216Z,30.47
2018-07-22T14:39:01.581Z,30.44
2018-07-22T14:41:30.772Z,30.41
2018-07-22T14:43:59.912Z,30.34
2018-07-22T14:46:29.099Z,30.38
2018-07-22T14:48:58.269Z,30.54
2018-07-22T14:51:27.245Z,30.67
2018-07-22T14:53:56.414Z,30.84
2018-07-22T14:56:25.619Z,31.01
2018-07-22T14:58:54.799Z,31.13
2018-07-22T15:01:23.964Z,31.22
2018-07-22T15:03:54.029Z,31.28
2018-07-22T15:06:23.229Z,31.30
2018-07-22T15:08:52.414Z,31.29
2018-07-22T15:11:21.948Z,31.23
2018-07-22T15:13:51.128Z,31.12
2018-07-22T15:16:20.319Z,31.01
2018-07-22T15:18:49.417Z,30.91
2018-07-22T15:21:18.554Z,30.84
2018-07-22T15:23:47.819Z,30.79
2018-07-22T15:26:16.984Z,30.77
2018-07-22T15:28:46.144Z,30.69
2018-07-22T15:31:15.287Z,30.63
2018-07-22T15:33:44.989Z,30.55
2018-07-22T15:36:14.215Z,30.54
2018-07-22T15:38:43.366Z,30.53
2018-07-22T15:41:12.619Z,30.48
2018-07-22T15:43:42.348Z,30.47
2018-07-22T15:46:12.987Z,30.43
2018-07-22T15:48:42.097Z,30.37
2018-07-22T15:51:11.248Z,30.30
2018-07-22T15:53:41.389Z,30.24
2018-07-22T15:56:10.523Z,30.22
2018-07-22T15:58:41.397Z,30.20
2018-07-22T16:01:11.319Z,30.15
2018-07-22T16:03:42.293Z,30.12
2018-07-22T16:06:12.131Z,30.07
2018-07-22T16:08:41.770Z,30.03
2018-07-22T16:11:12.135Z,30.00
2018-07-22T16:13:41.949Z,29.95
2018-07-22T16:16:11.190Z,29.90
2018-07-22T16:18:40.730Z,29.85
2018-07-22T16:21:10.362Z,29.83
2018-07-22T16:23:40.822Z,29.79
2018-07-22T16:26:10.797Z,29.75
2018-07-22T16:28:39.946Z,29.73
2018-07-22T16:31:09.125Z,29.70
2018-07-22T16:33:38.333Z,29.69
2018-07-22T16:36:07.510Z,29.72
2018-07-22T16:38:36.636Z,29.77
2018-07-22T16:41:05.790Z,29.78
2018-07-22T16:43:36.040Z,29.74
2018-07-22T16:46:05.210Z,29.69
2018-07-22T16:48:34.370Z,29.63
2018-07-22T16:51:03.915Z,29.57
2018-07-22T16:53:33.115Z,29.57
2018-07-22T16:56:02.309Z,29.56
2018-07-22T16:58:31.496Z,29.50
2018-07-22T17:01:00.843Z,29.44
2018-07-22T17:03:30.072Z,29.35
2018-07-22T17:05:59.267Z,29.26
2018-07-22T17:08:28.465Z,29.17
2018-07-22T17:10:57.632Z,29.07
2018-07-22T17:13:26.814Z,28.96
2018-07-22T17:15:57.717Z,28.85
2018-07-22T17:18:27.402Z,28.79
2018-07-22T17:20:57.110Z,28.76
2018-07-22T17:23:27.475Z,28.76
2018-07-22T17:25:57.129Z,28.72
2018-07-22T17:28:27.310Z,28.72
2018-07-22T17:30:56.546Z,28.70
2018-07-22T17:33:27.312Z,28.67
2018-07-22T17:35:56.819Z,28.59
2018-07-22T17:38:26.050Z,28.55
2018-07-22T17:40:55.167Z,28.52
2018-07-22T17:43:25.415Z,28.45
2018-07-22T17:45:54.573Z,28.33
2018-07-22T17:48:24.708Z,28.20
2018-07-22T17:50:55.573Z,28.08
2018-07-22T17:53:25.874Z,28.00
2018-07-22T17:55:56.425Z,27.93
2018-07-22T17:58:26.814Z,27.86
2018-07-22T18:00:55.942Z,27.78
2018-07-22T18:03:28.910Z,27.73
2018-07-22T18:05:58.331Z,27.69
2018-07-22T18:08:28.599Z,27.66
2018-07-22T18:10:58.830Z,27.62
2018-07-22T18:13:29.532Z,27.58
2018-07-22T18:16:00.394Z,27.52
2018-07-22T18:18:30.185Z,27.44
2018-07-22T18:20:59.528Z,27.38
2018-07-22T18:23:29.048Z,27.31
2018-07-22T18:25:58.238Z,27.24
2018-07-22T18:28:28.414Z,27.15
2018-07-22T18:30:59.038Z,27.06
2018-07-22T18:33:28.971Z,26.94
2018-07-22T18:35:58.202Z,26.85
2018-07-22T18:38:27.358Z,26.75
2018-07-22T18:40:57.075Z,26.66
2018-07-22T18:43:27.710Z,26.58
2018-07-22T18:45:56.913Z,26.49
2018-07-22T18:48:26.136Z,26.37
2018-07-22T18:50:56.043Z,26.27
2018-07-22T18:53:25.324Z,26.19
2018-07-22T18:55:56.167Z,26.10
2018-07-22T18:58:25.606Z,26.03
2018-07-22T19:00:54.980Z,25.95
2018-07-22T19:03:25.737Z,25.88
2018-07-22T19:05:54.978Z,25.83
2018-07-22T19:08:24.163Z,25.78
2018-07-22T19:10:53.410Z,25.73
2018-07-22T19:13:22.546Z,25.68
2018-07-22T19:15:51.780Z,25.61
2018-07-22T19:18:21.028Z,25.56
2018-07-22T19:20:50.186Z,25.50
2018-07-22T19:23:19.551Z,25.41
2018-07-22T19:25:48.756Z,25.32
2018-07-22T19:28:17.951Z,25.24
2018-07-22T19:30:47.326Z,25.15
2018-07-22T19:33:16.488Z,25.05
2018-07-22T19:35:45.683Z,24.98
2018-07-22T19:38:14.897Z,24.91
2018-07-22T19:40:44.112Z,24.81
2018-07-22T19:43:13.105Z,24.72
2018-07-22T19:45:42.310Z,24.62
2018-07-22T19:48:11.906Z,24.50
2018-07-22T19:50:41.043Z,24.38
2018-07-22T19:53:10.233Z,24.31
2018-07-22T19:55:39.548Z,24.27
2018-07-22T19:58:08.717Z,24.23
2018-07-22T20:00:37.940Z,24.20
2018-07-22T20:03:07.483Z,24.17
2018-07-22T20:05:36.939Z,24.14
2018-07-22T20:08:06.338Z,24.07
2018-07-22T20:10:35.490Z,23.98
2018-07-22T20:13:04.674Z,23.95
2018-07-22T20:15:33.834Z,23.93
2018-07-22T20:18:03.044Z,23.87
2018-07-22T20:20:32.167Z,23.80
2018-07-22T20:23:04.583Z,23.74
2018-07-22T20:25:33.719Z,23.66
2018-07-22T20:28:02.997Z,23.60
2018-07-22T20:30:32.810Z,23.53
2018-07-22T20:33:01.979Z,23.48
2018-07-22T20:35:31.147Z,23.43
2018-07-22T20:38:00.899Z,23.39
2018-07-22T20:40:30.142Z,23.35
2018-07-22T20:42:59.304Z,23.30
2018-07-22T20:45:28.480Z,23.24
2018-07-22T20:47:57.782Z,23.17
2018-07-22T20:50:26.986Z,23.09
2018-07-22T20:52:56.279Z,23.04
2018-07-22T20:55:25.545Z,22.98
2018-07-22T20:57:54.788Z,22.93
2018-07-22T21:00:23.930Z,22.86
2018-07-22T21:02:53.622Z,22.81
2018-07-22T21:05:23.707Z,22.76
2018-07-22T21:07:52.901Z,22.69
2018-07-22T21:10:22.056Z,22.63
2018-07-22T21:13:27.482Z,22.57
2018-07-22T21:15:56.762Z,22.49
2018-07-22T21:18:26.609Z,22.45
2018-07-22T21:20:55.802Z,22.39
2018-07-22T21:23:24.927Z,22.32
2018-07-22T21:25:54.061Z,22.27
2018-07-22T21:28:23.213Z,22.20
